Time;durP1;ratioP1;P1;durP2;ratioP2;P2;SDS_P1;SDS_P2;PMS_P1;PMS_P2;Temp;Humidity;BMP_temperature;BMP_pressure;BME280_temperature;BME280_humidity;BME280_pressure;Samples;Min_cycle;Max_cycle;Signal;HPM_P1;HPM_P2
2022/06/13 00:00:51;;;;;;;4.07;2.28;;;14.60;73.20;;;;;;5054097;28;20021;-49
2022/06/13 00:03:17;;;;;;;9.32;2.85;;;14.60;73.30;;;;;;5053147;28;20044;-50
2022/06/13 00:05:42;;;;;;;14.20;4.43;;;14.60;73.40;;;;;;5053408;28;20052;-52
2022/06/13 00:08:08;;;;;;;6.10;2.67;;;14.70;73.40;;;;;;5053227;28;20033;-49
2022/06/13 00:10:34;;;;;;;5.45;2.35;;;14.70;73.20;;;;;;5052961;28;20028;-50
2022/06/13 00:13:00;;;;;;;9.65;2.58;;;14.70;73.30;;;;;;5053396;28;20095;-53
2022/06/13 00:15:25;;;;;;;6.70;2.85;;;14.50;73.80;;;;;;5053046;28;20139;-47
2022/06/13 00:17:51;;;;;;;6.38;2.92;;;14.50;74.00;;;;;;5053716;28;20059;-51
2022/06/13 00:20:17;;;;;;;11.98;2.53;;;14.40;74.20;;;;;;5053357;28;20346;-49
2022/06/13 00:22:42;;;;;;;7.07;2.75;;;14.20;75.30;;;;;;5052013;28;20456;-53
2022/06/13 00:25:09;;;;;;;7.65;3.17;;;14.30;75.60;;;;;;5053489;28;20035;-49
2022/06/13 00:27:34;;;;;;;7.13;2.85;;;14.30;75.70;;;;;;5051787;28;20025;-50
2022/06/13 00:30:01;;;;;;;9.38;2.67;;;14.20;75.50;;;;;;5052904;28;20108;-50
2022/06/13 00:32:27;;;;;;;7.63;2.83;;;14.20;75.90;;;;;;5053125;28;20075;-50
2022/06/13 00:34:52;;;;;;;7.55;3.03;;;14.20;76.00;;;;;;5052779;28;20025;-49
2022/06/13 00:37:18;;;;;;;7.07;2.63;;;14.10;76.40;;;;;;5051753;28;20059;-49
2022/06/13 00:39:43;;;;;;;8.95;2.38;;;14.10;76.30;;;;;;5053189;28;20024;-49
2022/06/13 00:42:15;;;;;;;7.93;2.97;;;14.10;76.40;;;;;;5052031;28;20485;-51
2022/06/13 00:44:41;;;;;;;5.13;2.25;;;14.10;76.70;;;;;;5053447;28;20025;-50
2022/06/13 00:47:10;;;;;;;4.82;2.47;;;14.00;76.90;;;;;;5053411;28;20412;-50
2022/06/13 00:49:38;;;;;;;6.07;2.60;;;14.00;77.30;;;;;;5053039;28;20052;-52
2022/06/13 00:52:41;;;;;;;9.15;3.22;;;13.90;77.40;;;;;;5054318;28;20029;-49
2022/06/13 00:55:25;;;;;;;11.23;3.30;;;13.80;77.90;;;;;;5053113;28;20503;-50
2022/06/13 00:57:51;;;;;;;9.07;3.53;;;13.80;78.30;;;;;;5052904;28;20017;-50
2022/06/13 01:00:19;;;;;;;5.25;2.75;;;13.70;78.60;;;;;;5053702;28;20388;-50
2022/06/13 01:02:47;;;;;;;5.60;2.55;;;13.60;79.00;;;;;;5056654;28;20025;-51
2022/06/13 01:05:18;;;;;;;4.75;2.90;;;13.60;79.20;;;;;;5057489;28;20423;-49
2022/06/13 01:07:44;;;;;;;8.60;3.08;;;13.40;79.70;;;;;;5054873;28;20029;-48
2022/06/13 01:12:54;;;;;;;10.63;3.58;;;13.20;80.90;;;;;;5056489;28;20547;-49
2022/06/13 01:15:45;;;;;;;6.88;3.33;;;13.20;80.80;;;;;;5055807;28;20045;-49
2022/06/13 01:18:38;;;;;;;7.20;3.70;;;13.30;81.10;;;;;;5056083;28;20091;-48
2022/06/13 01:21:28;;;;;;;9.10;3.10;;;13.30;81.20;;;;;;5055811;28;20381;-49
2022/06/13 01:24:14;;;;;;;6.95;3.47;;;13.30;81.40;;;;;;5056161;28;20047;-48
2022/06/13 01:26:53;;;;;;;8.90;2.67;;;13.30;81.20;;;;;;5055831;28;20021;-50
2022/06/13 01:29:52;;;;;;;8.20;2.85;;;13.40;80.90;;;;;;5056284;28;20032;-49
2022/06/13 01:32:20;;;;;;;12.52;3.03;;;13.40;80.80;;;;;;5056016;28;20083;-50
2022/06/13 01:35:25;;;;;;;7.63;3.10;;;13.40;80.70;;;;;;5055538;28;20025;-50
2022/06/13 01:38:00;;;;;;;7.10;3.88;;;13.50;80.60;;;;;;5055030;28;20037;-49
2022/06/13 01:40:49;;;;;;;6.40;3.33;;;13.70;80.20;;;;;;5055724;28;20396;-48
2022/06/13 01:44:07;;;;;;;8.32;2.70;;;13.80;79.70;;;;;;5055626;28;20024;-49
2022/06/13 01:46:38;;;;;;;10.65;3.63;;;13.80;79.50;;;;;;5054426;28;20500;-49
2022/06/13 01:49:29;;;;;;;8.15;3.58;;;13.80;79.50;;;;;;5055853;28;20029;-48
2022/06/13 01:52:11;;;;;;;7.38;4.07;;;13.80;79.30;;;;;;5054157;28;20037;-52
2022/06/13 01:54:55;;;;;;;7.07;3.40;;;13.80;79.20;;;;;;5055433;28;20025;-49
2022/06/13 01:57:39;;;;;;;8.52;3.63;;;13.80;79.30;;;;;;5055626;28;20029;-54
2022/06/13 02:00:08;;;;;;;9.63;3.33;;;13.70;79.60;;;;;;5055402;28;20104;-51
2022/06/13 02:02:42;;;;;;;9.73;3.85;;;13.70;79.40;;;;;;5055377;28;20113;-50
2022/06/13 02:05:14;;;;;;;6.88;3.28;;;13.30;80.20;;;;;;5055373;28;20029;-54
2022/06/13 02:07:46;;;;;;;12.15;4.03;;;13.50;80.40;;;;;;5055694;28;20031;-52
2022/06/13 02:10:18;;;;;;;10.85;4.00;;;13.50;80.10;;;;;;5055509;28;20040;-51
2022/06/13 02:12:50;;;;;;;10.90;4.15;;;13.40;80.60;;;;;;5055025;28;20108;-50
2022/06/13 02:15:31;;;;;;;7.13;3.90;;;13.70;80.20;;;;;;5054933;28;20072;-49
2022/06/13 02:18:04;;;;;;;7.95;4.13;;;13.80;79.60;;;;;;5055201;28;20468;-49
2022/06/13 02:20:37;;;;;;;7.47;2.95;;;13.80;79.50;;;;;;5055040;28;20021;-49
2022/06/13 02:23:13;;;;;;;6.20;3.25;;;13.60;79.90;;;;;;5055026;28;20155;-49
2022/06/13 02:25:44;;;;;;;7.13;3.53;;;13.60;80.50;;;;;;5054943;28;20029;-49
2022/06/13 02:28:47;;;;;;;7.50;3.80;;;13.60;80.70;;;;;;5055345;28;20025;-50
2022/06/13 02:31:55;;;;;;;7.05;3.30;;;13.50;80.70;;;;;;5054590;28;20076;-49
2022/06/13 02:34:30;;;;;;;9.15;3.45;;;13.60;80.70;;;;;;5054648;28;20063;-49
2022/06/13 02:37:01;;;;;;;5.53;3.25;;;13.50;80.70;;;;;;5054948;28;20056;-48
2022/06/13 02:39:33;;;;;;;10.88;3.05;;;13.40;81.50;;;;;;5054931;28;20074;-50
2022/06/13 02:42:10;;;;;;;12.35;3.97;;;13.30;81.50;;;;;;5054891;28;20013;-48
2022/06/13 02:44:44;;;;;;;6.70;3.22;;;13.30;81.60;;;;;;5054872;28;20504;-50
2022/06/13 02:47:18;;;;;;;6.50;3.55;;;13.30;81.20;;;;;;5055228;28;20036;-51
2022/06/13 02:49:58;;;;;;;10.93;3.50;;;13.20;81.50;;;;;;5053470;28;20021;-48
2022/06/13 02:52:42;;;;;;;5.78;3.65;;;13.20;81.30;;;;;;5054949;28;20504;-48
2022/06/13 02:55:10;;;;;;;16.25;3.72;;;13.30;81.50;;;;;;5054903;28;20419;-49
2022/06/13 20:15:25;;;;;;;5.00;1.30;;;16.50;54.70;;;;;;5071316;28;20786;-37
2022/06/13 20:17:55;;;;;;;3.13;1.30;;;16.50;54.60;;;;;;5070685;28;20025;-39
2022/06/13 20:20:23;;;;;;;5.55;1.73;;;16.40;54.50;;;;;;5069543;28;20032;-39
2022/06/13 20:22:50;;;;;;;5.80;2.80;;;16.50;54.60;;;;;;5070763;28;20028;-38
2022/06/13 20:25:16;;;;;;;9.25;2.00;;;16.50;54.60;;;;;;5069714;28;20495;-38
2022/06/13 20:27:41;;;;;;;4.03;1.60;;;16.50;54.70;;;;;;5070712;28;20025;-37
2022/06/13 20:30:08;;;;;;;5.32;1.98;;;16.50;54.70;;;;;;5070719;28;20428;-38
2022/06/13 20:32:36;;;;;;;4.05;1.27;;;16.40;55.20;;;;;;5070211;28;20365;-37
2022/06/13 20:35:03;;;;;;;4.60;1.63;;;16.40;55.50;;;;;;5070874;28;20028;-37
2022/06/13 20:37:31;;;;;;;4.30;1.70;;;16.30;55.60;;;;;;5070553;28;20510;-38
2022/06/13 20:40:00;;;;;;;2.22;1.40;;;16.30;55.90;;;;;;5070282;28;20100;-38
2022/06/13 20:42:30;;;;;;;4.80;1.58;;;16.30;56.40;;;;;;5068934;28;20028;-38
2022/06/13 20:45:02;;;;;;;3.85;1.30;;;16.30;56.60;;;;;;5068794;28;20103;-39
2022/06/13 20:47:29;;;;;;;4.20;1.85;;;16.30;56.90;;;;;;5070088;28;20029;-37
2022/06/13 20:49:55;;;;;;;4.15;1.17;;;16.20;57.40;;;;;;5070989;28;20427;-38
2022/06/13 20:52:21;;;;;;;8.07;1.60;;;16.20;57.60;;;;;;5068923;28;20108;-38
2022/06/13 20:54:47;;;;;;;3.00;1.48;;;16.10;58.10;;;;;;5069915;28;20492;-37
2022/06/13 20:57:14;;;;;;;5.22;1.70;;;16.10;58.10;;;;;;5068921;28;20021;-38
2022/06/13 20:59:40;;;;;;;4.68;1.33;;;16.00;58.70;;;;;;5070009;28;20079;-38
2022/06/13 21:02:09;;;;;;;4.38;1.50;;;15.80;59.60;;;;;;5070137;28;20025;-36
2022/06/13 21:04:36;;;;;;;4.32;1.30;;;15.70;60.20;;;;;;5068588;28;20442;-38
2022/06/13 21:07:03;;;;;;;3.10;1.38;;;15.50;60.90;;;;;;5070334;28;20113;-39
2022/06/13 21:12:13;;;;;;;1.70;1.02;;;15.30;61.70;;;;;;5070507;28;20040;-37
2022/06/13 21:14:39;;;;;;;14.90;2.25;;;15.30;61.60;;;;;;5069294;28;20048;-39
2022/06/13 21:17:05;;;;;;;7.13;1.50;;;15.30;61.60;;;;;;5069941;28;20021;-39
2022/06/13 21:19:32;;;;;;;4.32;2.15;;;15.40;61.60;;;;;;5069287;28;20040;-38
2022/06/13 21:21:58;;;;;;;7.85;1.20;;;15.30;61.90;;;;;;5068147;28;20028;-38
2022/06/13 21:24:29;;;;;;;5.72;1.88;;;15.30;61.90;;;;;;5069434;28;20021;-38
2022/06/13 21:26:55;;;;;;;7.05;1.80;;;15.30;62.20;;;;;;5057254;28;20024;-38
2022/06/13 21:29:20;;;;;;;5.20;2.13;;;15.30;62.50;;;;;;5055914;28;20025;-38
2022/06/13 21:31:46;;;;;;;10.43;3.05;;;15.30;62.70;;;;;;5055943;28;20464;-38
2022/06/13 21:34:13;;;;;;;4.07;1.60;;;15.30;62.60;;;;;;5055788;28;20611;-39
2022/06/13 21:36:40;;;;;;;3.33;1.33;;;15.30;62.60;;;;;;5055646;28;20028;-38
2022/06/13 21:39:06;;;;;;;11.82;2.92;;;15.30;63.10;;;;;;5056176;28;20036;-37
2022/06/13 21:41:36;;;;;;;4.63;1.77;;;15.30;63.30;;;;;;5055780;28;20103;-37
2022/06/13 21:44:02;;;;;;;5.05;2.00;;;15.20;63.40;;;;;;5055880;28;20032;-37
2022/06/13 21:46:28;;;;;;;5.10;1.98;;;15.20;63.60;;;;;;5056010;28;20039;-37
2022/06/13 21:48:54;;;;;;;4.97;1.40;;;15.10;64.30;;;;;;5055715;28;20025;-38
2022/06/13 21:51:20;;;;;;;6.45;2.25;;;15.00;65.00;;;;;;5055644;28;20036;-38
2022/06/13 21:53:46;;;;;;;8.35;1.85;;;14.80;65.40;;;;;;5055898;28;20119;-38
2022/06/13 21:56:15;;;;;;;5.90;2.17;;;14.70;65.90;;;;;;5055528;28;20073;-38
2022/06/13 21:58:41;;;;;;;8.05;1.70;;;14.70;66.10;;;;;;5055643;28;20539;-37
2022/06/13 22:01:09;;;;;;;8.35;2.88;;;14.70;66.20;;;;;;5055272;28;20078;-37
2022/06/13 22:03:35;;;;;;;7.70;1.80;;;14.70;66.30;;;;;;5055384;28;20078;-38
2022/06/13 22:06:02;;;;;;;10.35;1.95;;;14.70;66.40;;;;;;5055336;28;20037;-37
2022/06/13 22:08:28;;;;;;;8.15;2.40;;;14.80;66.60;;;;;;5055466;28;20035;-38
2022/06/13 22:10:54;;;;;;;8.57;2.75;;;14.80;66.40;;;;;;5055870;28;20048;-38
2022/06/13 22:13:20;;;;;;;5.90;1.58;;;14.80;66.40;;;;;;5053610;28;20052;-38
2022/06/13 22:15:46;;;;;;;2.92;1.48;;;14.80;66.60;;;;;;5055390;28;20141;-38
2022/06/13 22:18:12;;;;;;;2.97;1.40;;;14.70;66.60;;;;;;5054127;28;20033;-39
2022/06/13 22:20:39;;;;;;;9.77;2.10;;;14.70;66.90;;;;;;5054100;28;20077;-37
2022/06/13 22:23:07;;;;;;;7.68;1.75;;;14.60;66.90;;;;;;5055611;28;20021;-38
2022/06/13 22:25:33;;;;;;;8.23;2.00;;;14.60;67.00;;;;;;5055215;28;20037;-37
2022/06/13 22:28:01;;;;;;;10.35;1.73;;;14.60;67.10;;;;;;5055493;28;20116;-37
2022/06/13 22:30:29;;;;;;;5.47;1.73;;;14.50;67.30;;;;;;5055257;28;20029;-37
2022/06/13 22:32:56;;;;;;;5.72;1.80;;;14.40;67.80;;;;;;5057094;28;20021;-38
2022/06/13 22:35:23;;;;;;;8.55;1.45;;;14.30;68.20;;;;;;5055391;28;20036;-42
2022/06/13 22:37:50;;;;;;;8.43;1.70;;;14.20;68.50;;;;;;5053274;28;20044;-41
2022/06/13 22:40:17;;;;;;;6.57;1.90;;;14.20;69.20;;;;;;5054284;28;20047;-37
2022/06/13 22:42:43;;;;;;;11.55;2.10;;;14.10;69.50;;;;;;5055401;28;20017;-37
2022/06/13 22:45:10;;;;;;;6.20;2.05;;;14.00;69.80;;;;;;5055550;28;20025;-37
2022/06/13 22:50:19;;;;;;;6.07;1.48;;;14.00;70.30;;;;;;5055643;28;20036;-38
2022/06/13 22:52:46;;;;;;;6.35;2.05;;;13.90;70.50;;;;;;5055704;28;20116;-37
2022/06/13 22:55:17;;;;;;;5.30;1.42;;;13.90;70.60;;;;;;5053253;28;20029;-38
2022/06/13 22:57:43;;;;;;;7.68;2.47;;;13.90;70.90;;;;;;5054226;28;20021;-37
2022/06/13 23:00:16;;;;;;;9.27;1.98;;;13.90;70.80;;;;;;5054232;28;20499;-50
2022/06/13 23:02:42;;;;;;;3.55;1.65;;;13.80;71.50;;;;;;5054013;28;20383;-50
2022/06/13 23:05:08;;;;;;;5.18;1.92;;;13.70;72.30;;;;;;5054242;28;20025;-48
2022/06/13 23:07:34;;;;;;;2.67;1.80;;;13.50;72.60;;;;;;5053049;28;20033;-48
2022/06/13 23:10:01;;;;;;;8.10;1.80;;;13.50;73.30;;;;;;5054143;28;20123;-49
2022/06/13 23:12:26;;;;;;;7.22;3.15;;;13.50;73.30;;;;;;5052677;28;20362;-49
2022/06/13 23:14:52;;;;;;;8.52;4.05;;;13.40;73.40;;;;;;5053719;28;20033;-50
2022/06/13 23:17:18;;;;;;;8.02;3.25;;;13.40;73.70;;;;;;5053997;28;20021;-49
2022/06/13 23:19:43;;;;;;;8.00;2.08;;;13.30;74.10;;;;;;5053918;28;20021;-49
2022/06/13 23:22:12;;;;;;;5.43;2.22;;;13.30;74.30;;;;;;5054399;28;20021;-49
2022/06/13 23:24:38;;;;;;;8.05;2.08;;;13.30;74.50;;;;;;5053963;28;20047;-50
2022/06/13 23:27:04;;;;;;;4.68;1.88;;;13.30;74.40;;;;;;5053695;28;20032;-49
2022/06/13 23:29:29;;;;;;;8.35;1.95;;;13.20;74.60;;;;;;5054099;28;20029;-56
2022/06/13 23:31:55;;;;;;;8.02;1.98;;;13.10;74.80;;;;;;5054115;28;20047;-49
2022/06/13 23:34:21;;;;;;;6.35;1.77;;;13.10;74.90;;;;;;5053672;28;20017;-49
2022/06/13 23:36:47;;;;;;;7.88;1.90;;;13.00;75.40;;;;;;5052930;28;20048;-49
2022/06/13 23:39:13;;;;;;;10.57;2.15;;;12.90;75.60;;;;;;5053476;28;20033;-48
2022/06/13 23:41:39;;;;;;;3.75;1.83;;;12.90;75.80;;;;;;5054075;28;20028;-48
2022/06/13 23:44:05;;;;;;;8.55;2.80;;;12.80;76.30;;;;;;5052084;28;20123;-49
2022/06/13 23:46:31;;;;;;;8.85;2.38;;;12.80;76.10;;;;;;5053350;28;20024;-49
2022/06/13 23:48:57;;;;;;;9.35;2.85;;;12.80;76.40;;;;;;5053037;28;20044;-47
2022/06/13 23:51:23;;;;;;;3.88;1.83;;;12.80;76.50;;;;;;5053478;28;20032;-50
2022/06/13 23:53:48;;;;;;;4.75;2.30;;;12.80;76.60;;;;;;5053390;28;20025;-49
2022/06/13 23:56:14;;;;;;;5.65;2.28;;;12.80;76.70;;;;;;5053419;28;20091;-49
2022/06/13 23:58:39;;;;;;;4.70;2.50;;;12.80;76.60;;;;;;5053166;28;20017;-49
